DW3648 Granada ES current weather conditions

sailwx.info

Wind from 117

Air temperature 22.8° C
Dewpoint 13.8° C

Last reported at 2019-Jul-22 06:00 UTC.
Time now 2019-Jul-22 06:50 UTC

Location: N 37°10' W 003°35'.
View on Google Maps.

See reports from other nearby stations

  
Tides and Currents Weather Stations Pressure Air Temp Water Temp Dewpoint Dewpoint Depression Visibility Wind Speed Wind Dir Waves Ship Positions
date/time (UTC)wind fromknots sea level pressurealtimeterstation pressurevisibilityair tempwater tempwave heightnotes
2019-Jul-22 06:00 117 22.8
2019-Jul-22 05:46 117 22.2
2019-Jul-22 05:30 118 22.8
2019-Jul-22 05:16 118 22.8
2019-Jul-22 05:00 118 22.8
2019-Jul-22 04:45 118 22.8
2019-Jul-22 04:31 117 22.8
2019-Jul-22 04:15 118 0 gusting 2 23.3
2019-Jul-22 04:00 117 1 gusting 4 23.3
2019-Jul-22 03:45 118 2 gusting 5 23.3
2019-Jul-22 03:30 118 1 gusting 4 23.9
2019-Jul-22 03:16 118 0 gusting 3 23.9
2019-Jul-22 03:00 117 0 gusting 4 23.9
2019-Jul-22 02:45 118 24.4
2019-Jul-22 02:30 118 1 gusting 3 24.4
2019-Jul-22 02:15 118 0 gusting 2 24.4
2019-Jul-22 02:00 118 0 gusting 3 24.4
2019-Jul-22 01:45 118 1 gusting 5 25.0
2019-Jul-22 01:30 274 0 gusting 3 25.0
2019-Jul-22 01:15 274 25.6
2019-Jul-22 01:00 274 25.6
2019-Jul-22 00:45 274 26.1
2019-Jul-22 00:30 274 26.1
2019-Jul-22 00:15 274 0 gusting 3 26.1
2019-Jul-22 00:00 273 26.7
2019-Jul-21 23:45 306 26.7
2019-Jul-21 23:30 306 26.7
2019-Jul-21 23:15 306 27.2
2019-Jul-21 23:00 251 27.2
2019-Jul-21 22:47 251 0 gusting 2 27.2
2019-Jul-21 22:32 251 27.2
2019-Jul-21 22:17 251 27.8
2019-Jul-21 22:01 312 1 gusting 5 27.8
2019-Jul-21 21:47 304 4 gusting 6 28.3
2019-Jul-21 21:31 310 1 gusting 6 28.9
2019-Jul-21 21:16 275 1 gusting 6 29.4
2019-Jul-21 21:02 311 3 gusting 6 29.4
2019-Jul-21 20:46 281 2 gusting 5 30.0
2019-Jul-21 20:31 281 30.0
2019-Jul-21 20:16 284 30.6
2019-Jul-21 20:01 205 30.6
2019-Jul-21 19:46 162 31.1
2019-Jul-21 19:31 181 1 gusting 5 31.1
2019-Jul-21 19:16 121 1 gusting 8 31.7
2019-Jul-21 19:01 213 4 gusting 11 32.8
2019-Jul-21 18:46 191 33.9
2019-Jul-21 18:33 263 2 gusting 7 35.0
2019-Jul-21 18:16 248 1 gusting 6 36.7
2019-Jul-21 18:01 261 0 gusting 5 36.7
2019-Jul-21 17:46 110 37.2
2019-Jul-21 17:31 252 0 gusting 6 37.2
2019-Jul-21 17:15 171 37.2
2019-Jul-21 17:02 226 2 gusting 8 37.8
2019-Jul-21 16:46 190 0 gusting 9 37.8
2019-Jul-21 16:32 244 4 gusting 8 37.2
2019-Jul-21 16:16 229 4 gusting 7 37.8
2019-Jul-21 16:01 247 6 gusting 10 38.3
2019-Jul-21 15:45 227 1 gusting 6 38.3
2019-Jul-21 15:30 284 4 gusting 8 37.8
2019-Jul-21 15:15 277 1 gusting 6 38.3
2019-Jul-21 15:00 189 1 gusting 6 37.8
2019-Jul-21 14:46 200 4 gusting 8 37.2
2019-Jul-21 14:31 180 2 gusting 6 36.7
2019-Jul-21 14:15 298 4 gusting 8 36.7
2019-Jul-21 14:00 299 3 gusting 9 36.1
2019-Jul-21 13:46 277 4 gusting 7 36.7
2019-Jul-21 13:31 313 0 gusting 6 36.7
2019-Jul-21 13:15 249 0 gusting 6 36.1
2019-Jul-21 13:01 265 4 gusting 8 35.6
2019-Jul-21 12:45 240 2 gusting 6 35.0
2019-Jul-21 12:30 275 3 gusting 8 34.4
2019-Jul-21 12:15 283 3 gusting 7 33.9
2019-Jul-21 12:00 277 3 gusting 8 33.9
2019-Jul-21 11:45 168 1 gusting 7 33.9
2019-Jul-21 11:30 291 2 gusting 6 33.3
2019-Jul-21 11:15 207 0 gusting 5 32.2
2019-Jul-21 11:00 279 0 gusting 5 32.2
2019-Jul-21 10:47 255 31.7
2019-Jul-21 10:33 263 3 gusting 6 31.7
2019-Jul-21 10:16 211 1 gusting 5 31.1
2019-Jul-21 10:01 323 1 gusting 5 30.6
2019-Jul-21 09:46 292 0 gusting 5 30.0
2019-Jul-21 09:31 261 3 gusting 6 30.0
2019-Jul-21 09:16 248 1 gusting 5 29.4
2019-Jul-21 09:01 242 30.0
2019-Jul-21 08:46 104 28.9
2019-Jul-21 08:31 240 27.8
2019-Jul-21 08:17 240 27.2
2019-Jul-21 08:00 240 26.7
2019-Jul-21 07:46 267 1 gusting 5 26.7
2019-Jul-21 07:31 275 26.7
2019-Jul-21 07:15 279 0 gusting 3 26.1
2019-Jul-21 07:00 345 25.6
2019-Jul-21 06:45 344 24.4
2019-Jul-21 06:32 040 23.9
2019-Jul-21 06:15 105 23.3
2019-Jul-21 06:00 105 23.3
2019-Jul-21 05:46 105 23.3
2019-Jul-21 05:31 119 1 gusting 6 23.3
2019-Jul-21 05:16 114 23.3
2019-Jul-21 05:00 114 23.9
2019-Jul-21 04:46 114 23.9
2019-Jul-21 04:30 114 23.9
2019-Jul-21 04:15 114 24.4
2019-Jul-21 04:00 114 24.4
2019-Jul-21 03:46 105 1 gusting 5 24.4
2019-Jul-21 03:30 096 24.4
2019-Jul-21 03:16 124 24.4
2019-Jul-21 03:00 125 24.4
2019-Jul-21 02:45 125 24.4
2019-Jul-21 02:31 128 0 gusting 3 24.4
2019-Jul-21 02:15 127 24.4
2019-Jul-21 02:00 127 25.0
2019-Jul-21 01:45 112 25.0
2019-Jul-21 01:30 102 1 gusting 4 25.6
2019-Jul-21 01:15 097 0 gusting 5 25.6
2019-Jul-21 01:00 094 0 gusting 3 26.1
2019-Jul-21 00:45 086 26.1
2019-Jul-21 00:30 086 26.1
2019-Jul-21 00:15 086 26.7
2019-Jul-21 00:00 086 26.7
2019-Jul-20 23:45 086 26.7
2019-Jul-20 23:33 086 26.7
2019-Jul-20 23:16 085 0 gusting 5 26.7
2019-Jul-20 23:01 091 0 gusting 3 27.2
2019-Jul-20 22:46 258 27.2
2019-Jul-20 22:31 258 27.8
2019-Jul-20 22:16 258 27.8
2019-Jul-20 22:01 258 28.3
2019-Jul-20 21:46 258 28.9
2019-Jul-20 21:32 258 29.4
2019-Jul-20 21:16 258 29.4
2019-Jul-20 21:01 258 30.0
2019-Jul-20 20:46 258 30.0
2019-Jul-20 20:31 258 1 gusting 6 31.1
2019-Jul-20 20:15 191 0 gusting 2 31.1
2019-Jul-20 20:01 191 31.7
2019-Jul-20 19:47 191 31.7
2019-Jul-20 19:31 180 32.8
2019-Jul-20 19:17 271 0 gusting 3 33.3
2019-Jul-20 19:01 271 0 gusting 6 34.4
2019-Jul-20 18:46 169 0 gusting 7 35.0
2019-Jul-20 18:31 257 0 gusting 6 36.1
2019-Jul-20 18:17 294 4 gusting 8 36.1
2019-Jul-20 18:02 246 2 gusting 8 36.7
2019-Jul-20 17:46 293 3 gusting 9 37.2
2019-Jul-20 17:31 251 1 gusting 9 37.8
2019-Jul-20 17:16 227 3 gusting 7 37.8
2019-Jul-20 17:00 253 3 gusting 9 38.3
2019-Jul-20 16:46 302 3 gusting 8 38.3
2019-Jul-20 16:31 237 3 gusting 7 38.3
2019-Jul-20 16:16 286 5 gusting 9 38.3
2019-Jul-20 16:02 330 3 gusting 7 38.3
2019-Jul-20 15:46 261 1 gusting 9 38.3
2019-Jul-20 15:31 300 1 gusting 6 37.8
2019-Jul-20 15:16 188 3 gusting 8 37.2
2019-Jul-20 15:01 349 3 gusting 6 37.8
2019-Jul-20 14:46 279 3 gusting 6 37.2
2019-Jul-20 14:30 298 0 gusting 7 36.1
2019-Jul-20 14:15 209 2 gusting 6 36.7
2019-Jul-20 14:01 240 36.1
2019-Jul-20 13:45 217 1 gusting 6 36.1
2019-Jul-20 13:30 257 1 gusting 9 35.0
2019-Jul-20 13:15 279 0 gusting 7 35.0
2019-Jul-20 13:01 285 2 gusting 6 35.6
2019-Jul-20 12:45 239 0 gusting 6 35.0
2019-Jul-20 12:30 284 2 gusting 6 33.9
2019-Jul-20 12:15 147 0 gusting 7 33.9
2019-Jul-20 12:00 261 2 gusting 7 33.3
2019-Jul-20 11:45 255 2 gusting 6 33.9
2019-Jul-20 11:30 281 32.8
2019-Jul-20 11:17 251 0 gusting 6 32.2
2019-Jul-20 11:02 242 31.7
2019-Jul-20 10:46 249 31.1
2019-Jul-20 10:32 248 0 gusting 5 30.6
2019-Jul-20 10:16 248 1 gusting 4 30.0
2019-Jul-20 10:01 248 29.4
2019-Jul-20 09:46 096 0 gusting 6 28.9
2019-Jul-20 06:45 109 23.3
2019-Jul-20 06:30 107 22.8
2019-Jul-20 06:15 107 22.2
2019-Jul-20 06:00 107 22.2